Hutchinson Island, Florida
Current Conditions -  °F | °C
As of 11:53 AM on Thursday 30 Oct 2014 (Local Time) from KFPR Reporting Station
Clear Clear  
Wind Chill: 83°   Ceiling: Unl
Heat Index: 84°   Visibility: 10mi
Dew Point: 62°   Wind: 5mph
Humidity: 49%   Direction: NA
Pressure: 29.97"   Gusts: NA
Location:  27.3823°N, 80.2604°W
Report Text: KFPR 301553Z VRB04KT 10SM CLR 28/17 A2997 RMK AO2 SLP149 T02830167
Loading
Personal Weather Stations






























Interactive Weather Map
Tropical Storm Tracking
New forecast layout! Learn more

10-Day Weather Forecast

Advertisements
Track Severe Weather on mobile